createdAt,value
2019-02-12T00:00:33.172Z,101601.47
2019-02-12T00:03:02.631Z,101607.48
2019-02-12T00:05:31.984Z,101606.34
2019-02-12T00:08:01.486Z,101612.59
2019-02-12T00:10:30.863Z,101611.62
2019-02-12T00:13:00.080Z,101615.84
2019-02-12T00:15:29.498Z,101618.86
2019-02-12T00:17:58.786Z,101621.18
2019-02-12T00:20:28.045Z,101621.70
2019-02-12T00:22:57.465Z,101628.47
2019-02-12T00:25:26.846Z,101638.09
2019-02-12T00:27:56.188Z,101640.67
2019-02-12T00:30:25.812Z,101647.13
2019-02-12T00:32:55.097Z,101651.13
2019-02-12T00:35:24.365Z,101650.53
2019-02-12T00:37:53.776Z,101650.74
2019-02-12T00:40:23.082Z,101653.38
2019-02-12T00:42:52.444Z,101661.06
2019-02-12T00:45:21.933Z,101662.87
2019-02-12T00:47:51.213Z,101674.36
2019-02-12T00:50:20.506Z,101675.63
2019-02-12T00:52:49.927Z,101684.46
2019-02-12T00:55:19.252Z,101686.61
2019-02-12T00:57:48.599Z,101691.11
2019-02-12T01:00:18.161Z,101692.47
2019-02-12T01:02:47.500Z,101695.32
2019-02-12T01:05:16.819Z,101706.47
2019-02-12T01:07:46.327Z,101713.48
2019-02-12T01:10:15.583Z,101709.31
2019-02-12T01:12:44.869Z,101718.45
2019-02-12T01:15:14.420Z,101721.94
2019-02-12T01:17:43.766Z,101727.30
2019-02-12T01:20:13.587Z,101735.63
2019-02-12T01:22:43.203Z,101737.01
2019-02-12T01:25:12.473Z,101741.48
2019-02-12T01:27:41.815Z,101745.39
2019-02-12T01:30:16.942Z,101745.77
2019-02-12T01:32:46.612Z,101751.84
2019-02-12T01:35:16.017Z,101753.84
2019-02-12T01:37:45.380Z,101757.15
2019-02-12T01:40:14.982Z,101762.56
2019-02-12T01:42:44.315Z,101764.44
2019-02-12T01:45:14.019Z,101764.81
2019-02-12T01:47:43.321Z,101762.48
2019-02-12T01:50:14.091Z,101766.25
2019-02-12T01:52:43.393Z,101773.59
2019-02-12T01:55:12.747Z,101765.93
2019-02-12T01:57:42.148Z,101773.79
2019-02-12T02:00:13.807Z,101769.23
2019-02-12T02:02:43.413Z,101772.27
2019-02-12T02:05:12.764Z,101774.85
2019-02-12T02:07:42.037Z,101773.89
2019-02-12T02:10:13.961Z,101778.34
2019-02-12T02:12:43.355Z,101777.62
2019-02-12T02:15:12.719Z,101781.69
2019-02-12T02:17:41.951Z,101775.64
2019-02-12T02:20:11.785Z,101786.65
2019-02-12T02:22:41.141Z,101785.87
2019-02-12T02:25:10.922Z,101792.97
2019-02-12T02:27:40.585Z,101788.91
2019-02-12T02:30:11.209Z,101802.13
2019-02-12T02:32:40.479Z,101804.16
2019-02-12T02:35:10.252Z,101804.91
2019-02-12T02:37:39.655Z,101813.41
2019-02-12T02:40:09.532Z,101822.27
2019-02-12T02:42:38.808Z,101828.58
2019-02-12T02:45:08.905Z,101839.79
2019-02-12T02:47:38.237Z,101834.89
2019-02-12T02:50:08.190Z,101840.51
2019-02-12T02:52:37.492Z,101841.92
2019-02-12T02:55:06.963Z,101842.70
2019-02-12T02:57:36.483Z,101846.44
2019-02-12T03:00:07.404Z,101845.09
2019-02-12T03:02:36.754Z,101845.41
2019-02-12T03:05:07.174Z,101837.45
2019-02-12T03:07:36.491Z,101848.23
2019-02-12T03:10:06.013Z,101852.81
2019-02-12T03:12:35.407Z,101854.48
2019-02-12T03:15:04.828Z,101876.36
2019-02-12T03:17:34.120Z,101870.36
2019-02-12T03:20:03.875Z,101882.41
2019-02-12T03:22:33.264Z,101887.82
2019-02-12T03:25:02.610Z,101892.45
2019-02-12T03:27:31.978Z,101897.55
2019-02-12T03:30:01.242Z,101896.30
2019-02-12T03:32:30.527Z,101909.17
2019-02-12T03:34:59.976Z,101919.73
2019-02-12T03:37:29.339Z,101927.61
2019-02-12T03:39:58.656Z,101932.98
2019-02-12T03:42:28.099Z,101934.48
2019-02-12T03:44:57.407Z,101941.89
2019-02-12T03:47:26.669Z,101934.19
2019-02-12T03:49:56.039Z,101934.64
2019-02-12T03:52:25.383Z,101944.16
2019-02-12T03:54:54.803Z,101945.17
2019-02-12T03:57:24.592Z,101956.25
2019-02-12T03:59:53.947Z,101954.58
2019-02-12T04:02:23.314Z,101960.72
2019-02-12T04:04:52.707Z,101964.14
2019-02-12T04:07:22.053Z,101966.41
2019-02-12T04:09:51.317Z,101961.55
2019-02-12T04:12:20.662Z,101969.40
2019-02-12T04:14:50.203Z,101963.79
2019-02-12T04:17:19.536Z,101968.16
2019-02-12T04:19:49.046Z,101975.37
2019-02-12T04:22:22.603Z,101975.16
2019-02-12T04:24:49.336Z,101985.00
2019-02-12T04:27:18.719Z,101984.68
2019-02-12T04:29:48.237Z,101985.00
2019-02-12T04:32:17.583Z,101986.92
2019-02-12T04:34:46.914Z,101984.05
2019-02-12T04:37:16.343Z,101990.70
2019-02-12T04:39:45.674Z,101999.34
2019-02-12T04:42:15.029Z,102004.41
2019-02-12T04:44:44.412Z,102004.64
2019-02-12T04:47:13.696Z,102012.61
2019-02-12T04:49:43.027Z,102015.55
2019-02-12T04:52:12.512Z,102013.03
2019-02-12T04:54:41.811Z,102012.75
2019-02-12T04:57:11.088Z,102022.52
2019-02-12T04:59:40.457Z,102022.91
2019-02-12T05:02:09.814Z,102032.70
2019-02-12T05:04:39.125Z,102039.78
2019-02-12T05:07:08.642Z,102050.48
2019-02-12T05:09:39.526Z,102047.62
2019-02-12T05:12:08.850Z,102052.74
2019-02-12T05:14:38.132Z,102058.67
2019-02-12T05:17:07.408Z,102067.08
2019-02-12T05:19:36.751Z,102060.80
2019-02-12T05:22:06.063Z,102067.85
2019-02-12T05:24:35.370Z,102079.74
2019-02-12T05:27:04.715Z,102087.37
2019-02-12T05:29:34.052Z,102088.38
2019-02-12T05:32:03.418Z,102093.11
2019-02-12T05:34:32.696Z,102095.17
2019-02-12T05:37:01.919Z,102100.78
2019-02-12T05:39:31.210Z,102094.75
2019-02-12T05:42:00.727Z,102084.09
2019-02-12T05:44:30.106Z,102095.91
2019-02-12T05:46:59.458Z,102110.47
2019-02-12T05:49:28.925Z,102113.98
2019-02-12T05:51:58.233Z,102108.28
2019-02-12T05:54:27.517Z,102106.41
2019-02-12T05:56:56.969Z,102118.23
2019-02-12T05:59:26.233Z,102116.02
2019-02-12T06:01:55.500Z,102119.94
2019-02-12T06:04:25.044Z,102123.16
2019-02-12T06:06:54.373Z,102128.59
2019-02-12T06:09:23.618Z,102144.83
2019-02-12T06:11:53.075Z,102151.24
2019-02-12T06:14:22.460Z,102157.17
2019-02-12T06:16:51.777Z,102168.19
2019-02-12T06:19:21.140Z,102176.00
2019-02-12T06:21:50.420Z,102173.98
2019-02-12T06:24:19.739Z,102178.04
2019-02-12T06:26:49.128Z,102180.91
2019-02-12T06:29:18.504Z,102173.64
2019-02-12T06:31:47.917Z,102191.85
2019-02-12T06:34:17.322Z,102194.08
2019-02-12T06:36:46.674Z,102197.64
2019-02-12T06:39:16.044Z,102200.34
2019-02-12T06:41:45.679Z,102202.22
2019-02-12T06:44:14.997Z,102212.67
2019-02-12T06:46:44.322Z,102211.31
2019-02-12T06:49:13.637Z,102216.89
2019-02-12T06:51:42.899Z,102233.45
2019-02-12T06:54:12.266Z,102237.19
2019-02-12T06:56:41.685Z,102238.84
2019-02-12T06:59:11.051Z,102236.63
2019-02-12T07:01:40.320Z,102238.31
2019-02-12T07:04:13.186Z,102244.56
2019-02-12T07:07:05.716Z,102249.14
2019-02-12T07:09:56.980Z,102259.12
2019-02-12T07:12:55.092Z,102266.89
2019-02-12T07:15:43.849Z,102266.89
2019-02-12T07:19:14.886Z,102279.92
2019-02-12T07:22:06.379Z,102281.08
2019-02-12T07:25:15.663Z,102294.97
2019-02-12T07:27:58.655Z,102299.36
2019-02-12T07:31:00.753Z,102306.78
2019-02-12T07:34:02.893Z,102313.70
2019-02-12T07:37:02.999Z,102309.30
2019-02-12T07:39:42.899Z,102314.18
2019-02-12T07:42:59.273Z,102318.70
2019-02-12T07:45:58.632Z,102310.41
2019-02-12T07:48:52.165Z,102320.88
2019-02-12T07:51:55.060Z,102327.36
2019-02-12T07:55:08.293Z,102333.88
2019-02-12T07:58:23.504Z,102336.54
2019-02-12T08:01:20.198Z,102345.86
2019-02-12T08:04:30.624Z,102344.76
2019-02-12T08:07:34.219Z,102353.91
2019-02-12T08:10:41.166Z,102364.19
2019-02-12T08:13:38.136Z,102358.20
2019-02-12T08:16:47.043Z,102370.98
2019-02-12T08:19:33.009Z,102375.08
2019-02-12T08:22:58.307Z,102378.66
2019-02-12T08:25:49.543Z,102379.66
2019-02-12T08:28:55.876Z,102385.92
2019-02-12T08:32:09.077Z,102389.86
2019-02-12T08:35:10.260Z,102394.55
2019-02-12T08:38:03.953Z,102397.97
2019-02-12T08:40:56.671Z,102407.08
2019-02-12T08:43:38.144Z,102403.17
2019-02-12T08:46:55.371Z,102407.20
2019-02-12T08:49:46.710Z,102414.98
2019-02-12T08:53:03.398Z,102424.81
2019-02-12T08:56:12.956Z,102420.70
2019-02-12T08:59:28.622Z,102432.72
2019-02-12T09:02:15.457Z,102440.70
2019-02-12T09:05:02.418Z,102443.37
2019-02-12T09:07:41.926Z,102446.77
2019-02-12T09:10:44.128Z,102458.08
2019-02-12T09:13:43.426Z,102454.69
2019-02-12T09:16:53.736Z,102458.41
2019-02-12T09:19:37.603Z,102462.58
2019-02-12T09:22:43.633Z,102469.71
2019-02-12T09:25:43.973Z,102472.52
2019-02-12T09:29:03.193Z,102478.63
2019-02-12T09:32:06.670Z,102487.23
2019-02-12T09:35:32.276Z,102489.78
2019-02-12T09:38:45.678Z,102487.87
2019-02-12T09:41:56.366Z,102491.91
2019-02-12T09:44:51.936Z,102494.78
2019-02-12T09:47:47.697Z,102504.37
2019-02-12T09:50:48.593Z,102506.54
2019-02-12T09:53:39.443Z,102512.61
2019-02-12T09:56:31.509Z,102513.61
2019-02-12T09:59:35.322Z,102518.20
2019-02-12T10:02:50.004Z,102512.83
2019-02-12T10:06:08.319Z,102520.25
2019-02-12T10:08:56.107Z,102521.70
2019-02-12T10:12:06.815Z,102525.45
2019-02-12T10:15:01.745Z,102526.56
2019-02-12T10:18:02.344Z,102533.80
2019-02-12T10:20:42.319Z,102536.27
2019-02-12T10:23:45.099Z,102546.38
2019-02-12T10:26:17.066Z,102544.62
2019-02-12T10:29:27.087Z,102550.28
2019-02-12T10:31:54.663Z,102542.75
2019-02-12T10:34:23.977Z,102542.81
2019-02-12T10:36:53.558Z,102542.72
2019-02-12T10:39:22.861Z,102538.23
2019-02-12T10:41:52.209Z,102533.94
2019-02-12T10:44:21.819Z,102524.83
2019-02-12T10:46:51.065Z,102527.34
2019-02-12T10:49:20.523Z,102531.89
2019-02-12T10:51:51.007Z,102536.59
2019-02-12T10:54:27.762Z,102532.34
2019-02-12T10:56:51.443Z,102528.60
2019-02-12T10:59:20.768Z,102517.89
2019-02-12T11:01:50.214Z,102526.43
2019-02-12T11:04:19.526Z,102521.55
2019-02-12T11:06:48.842Z,102526.03
2019-02-12T11:09:18.138Z,102530.90
2019-02-12T11:11:47.620Z,102522.70
2019-02-12T11:14:16.923Z,102529.70
2019-02-12T11:16:46.308Z,102524.54
2019-02-12T11:19:15.584Z,102533.77
2019-02-12T11:21:44.900Z,102537.45
2019-02-12T11:24:14.185Z,102531.41
2019-02-12T11:26:43.695Z,102532.25
2019-02-12T11:29:13.013Z,102545.23
2019-02-12T11:31:42.346Z,102539.42
2019-02-12T11:34:11.665Z,102540.48
2019-02-12T11:36:40.970Z,102543.50
2019-02-12T11:39:10.303Z,102541.41
2019-02-12T11:41:39.579Z,102534.61
2019-02-12T11:44:08.899Z,102535.13
2019-02-12T11:46:38.246Z,102540.86
2019-02-12T11:49:07.777Z,102537.80
2019-02-12T11:51:37.058Z,102545.72
2019-02-12T11:54:06.393Z,102537.83
2019-02-12T11:56:35.920Z,102550.00
2019-02-12T11:59:05.205Z,102556.53
2019-02-12T12:01:34.485Z,102550.33
2019-02-12T12:04:03.838Z,102560.08
2019-02-12T12:06:33.157Z,102561.19
2019-02-12T12:09:02.464Z,102562.73
2019-02-12T12:11:31.714Z,102561.11
2019-02-12T12:14:01.031Z,102563.48
2019-02-12T12:16:30.371Z,102573.73
2019-02-12T12:18:59.815Z,102568.28
2019-02-12T12:21:29.128Z,102571.41
2019-02-12T12:23:58.452Z,102574.76
2019-02-12T12:26:27.936Z,102580.95
2019-02-12T12:28:57.271Z,102584.70
2019-02-12T12:31:26.619Z,102586.20
2019-02-12T12:33:56.102Z,102583.60
2019-02-12T12:36:25.435Z,102579.16
2019-02-12T12:38:54.719Z,102589.23
2019-02-12T12:41:24.253Z,102593.20
2019-02-12T12:43:53.579Z,102594.65
2019-02-12T12:46:22.904Z,102605.52
2019-02-12T12:48:52.306Z,102599.22
2019-02-12T12:51:21.614Z,102603.44
2019-02-12T12:53:50.942Z,102602.91
2019-02-12T12:56:20.462Z,102597.75
2019-02-12T12:58:49.755Z,102607.75
2019-02-12T13:01:19.126Z,102604.37
2019-02-12T13:03:48.556Z,102612.78
2019-02-12T13:06:17.814Z,102612.38
2019-02-12T13:08:47.363Z,102616.48
2019-02-12T13:11:16.880Z,102621.51
2019-02-12T13:13:47.846Z,102618.74
2019-02-12T13:16:17.192Z,102622.18
2019-02-12T13:18:46.775Z,102617.03
2019-02-12T13:21:16.101Z,102620.06
2019-02-12T13:23:45.411Z,102624.23
2019-02-12T13:26:14.908Z,102620.02
2019-02-12T13:28:44.184Z,102620.59
2019-02-12T13:31:13.442Z,102627.15
2019-02-12T13:33:42.860Z,102625.17
2019-02-12T13:36:12.174Z,102632.97
2019-02-12T13:38:41.471Z,102626.27
2019-02-12T13:41:10.863Z,102628.03
2019-02-12T13:43:40.133Z,102631.59
2019-02-12T13:46:09.460Z,102632.91
2019-02-12T13:48:38.816Z,102641.14
2019-02-12T13:51:08.130Z,102653.43
2019-02-12T13:53:37.460Z,102653.06
2019-02-12T13:56:06.928Z,102656.95
2019-02-12T13:58:36.238Z,102661.52
2019-02-12T14:01:05.506Z,102671.05
2019-02-12T14:03:35.091Z,102671.67
2019-02-12T14:06:04.446Z,102668.17
2019-02-12T14:08:33.674Z,102660.92
2019-02-12T14:11:03.096Z,102670.97
2019-02-12T14:13:32.410Z,102664.55
2019-02-12T14:16:01.780Z,102673.84
2019-02-12T14:18:31.366Z,102672.80
2019-02-12T14:21:00.710Z,102673.39
2019-02-12T14:23:30.026Z,102665.03
2019-02-12T14:25:59.431Z,102670.55
2019-02-12T14:28:28.791Z,102672.30
2019-02-12T14:30:58.134Z,102672.23
2019-02-12T14:33:27.491Z,102674.57
2019-02-12T14:35:56.824Z,102675.48
2019-02-12T14:38:26.164Z,102674.30
2019-02-12T14:40:55.583Z,102676.05
2019-02-12T14:43:24.891Z,102679.50
2019-02-12T14:45:54.146Z,102679.36
2019-02-12T14:48:23.515Z,102681.83
2019-02-12T14:50:52.904Z,102677.17
2019-02-12T14:53:22.148Z,102679.22
2019-02-12T14:55:51.662Z,102684.47
2019-02-12T14:58:21.037Z,102681.11
2019-02-12T15:00:50.346Z,102687.20
2019-02-12T15:03:19.830Z,102685.28
2019-02-12T15:05:49.171Z,102686.90
2019-02-12T15:08:18.455Z,102689.20
2019-02-12T15:10:47.877Z,102685.40
2019-02-12T15:13:17.189Z,102686.17
2019-02-12T15:15:46.528Z,102682.29
2019-02-12T15:18:15.804Z,102684.96
2019-02-12T15:20:45.139Z,102680.93
2019-02-12T15:23:14.430Z,102688.63
2019-02-12T15:25:43.914Z,102683.59
2019-02-12T15:28:13.231Z,102683.96
2019-02-12T15:30:42.618Z,102690.95
2019-02-12T15:33:12.307Z,102697.48
2019-02-12T15:35:41.610Z,102701.29
2019-02-12T15:38:10.949Z,102707.30
2019-02-12T15:40:40.383Z,102707.73
2019-02-12T15:43:09.806Z,102705.06
2019-02-12T15:45:39.157Z,102699.34
2019-02-12T15:48:08.557Z,102703.30
2019-02-12T15:50:37.834Z,102704.94
2019-02-12T15:53:07.156Z,102708.82
2019-02-12T15:55:42.134Z,102703.09
2019-02-12T15:58:08.010Z,102704.98
2019-02-12T16:00:39.407Z,102715.85
2019-02-12T16:03:08.645Z,102709.94
2019-02-12T16:05:38.109Z,102708.61
2019-02-12T16:08:09.151Z,102717.35
2019-02-12T16:10:40.114Z,102714.31
2019-02-12T16:13:11.456Z,102709.42
2019-02-12T16:15:40.662Z,102717.48
2019-02-12T16:18:10.095Z,102721.42
2019-02-12T16:20:39.510Z,102718.58
2019-02-12T16:23:08.758Z,102716.22
2019-02-12T16:25:38.137Z,102717.22
2019-02-12T16:28:07.518Z,102721.81
2019-02-12T16:30:36.823Z,102723.17
2019-02-12T16:33:06.205Z,102722.52
2019-02-12T16:35:35.485Z,102725.59
2019-02-12T16:38:04.866Z,102730.20
2019-02-12T16:40:34.337Z,102729.72
2019-02-12T16:43:03.650Z,102729.74
2019-02-12T16:45:37.508Z,102732.84
2019-02-12T16:48:06.799Z,102742.04
2019-02-12T16:50:36.138Z,102740.89
2019-02-12T16:53:05.585Z,102749.52
2019-02-12T16:55:34.878Z,102739.17
2019-02-12T16:58:04.593Z,102744.80
2019-02-12T17:00:34.027Z,102743.25
2019-02-12T17:03:03.323Z,102738.17
2019-02-12T17:05:32.573Z,102739.33
2019-02-12T17:08:02.069Z,102742.16
2019-02-12T17:10:31.418Z,102740.78
2019-02-12T17:13:00.730Z,102741.92
2019-02-12T17:15:30.204Z,102740.02
2019-02-12T17:17:59.581Z,102744.28
2019-02-12T17:20:28.926Z,102735.62
2019-02-12T17:22:58.432Z,102738.47
2019-02-12T17:25:27.750Z,102737.73
2019-02-12T17:27:57.194Z,102730.04
2019-02-12T17:30:26.656Z,102738.48
2019-02-12T17:32:55.914Z,102735.73
2019-02-12T17:35:25.169Z,102736.77
2019-02-12T17:37:54.787Z,102738.36
2019-02-12T17:40:24.038Z,102738.71
2019-02-12T17:42:53.408Z,102738.22
2019-02-12T17:45:22.845Z,102749.42
2019-02-12T17:47:52.118Z,102743.66
2019-02-12T17:50:21.479Z,102747.27
2019-02-12T17:52:51.039Z,102751.21
2019-02-12T17:55:20.358Z,102749.91
2019-02-12T17:57:49.673Z,102747.75
2019-02-12T18:00:22.103Z,102750.68
2019-02-12T18:02:51.400Z,102738.98
2019-02-12T18:05:20.720Z,102743.19
2019-02-12T18:07:50.134Z,102739.96
2019-02-12T18:10:19.441Z,102736.75
2019-02-12T18:12:48.727Z,102733.00
2019-02-12T18:15:18.057Z,102725.53
2019-02-12T18:17:47.363Z,102731.64
2019-02-12T18:20:16.665Z,102722.95
2019-02-12T18:22:46.156Z,102721.78
2019-02-12T18:25:15.520Z,102716.16
2019-02-12T18:27:44.817Z,102721.78
2019-02-12T18:30:15.205Z,102724.83
2019-02-12T18:32:44.553Z,102716.21
2019-02-12T18:35:15.016Z,102720.64
2019-02-12T18:37:44.360Z,102722.52
2019-02-12T18:40:13.697Z,102722.16
2019-02-12T18:42:42.979Z,102727.70
2019-02-12T18:45:13.627Z,102721.37
2019-02-12T18:47:42.966Z,102713.72
2019-02-12T18:50:12.770Z,102716.59
2019-02-12T18:52:42.156Z,102723.03
2019-02-12T18:55:12.296Z,102722.84
2019-02-12T18:57:41.671Z,102719.26
2019-02-12T19:00:14.060Z,102719.06
2019-02-12T19:02:43.374Z,102724.50
2019-02-12T19:05:12.730Z,102722.17
2019-02-12T19:07:42.983Z,102714.20
2019-02-12T19:10:12.958Z,102706.02
2019-02-12T19:12:42.280Z,102707.58
2019-02-12T19:15:13.395Z,102712.30
2019-02-12T19:17:43.458Z,102705.34
2019-02-12T19:20:13.364Z,102701.30
2019-02-12T19:22:42.742Z,102698.09
2019-02-12T19:25:12.167Z,102703.02
2019-02-12T19:27:41.451Z,102699.09
2019-02-12T19:30:12.798Z,102708.03
2019-02-12T19:32:42.113Z,102701.20
2019-02-12T19:35:11.509Z,102708.42
2019-02-12T19:37:40.995Z,102705.31
2019-02-12T19:40:10.347Z,102703.08
2019-02-12T19:42:39.671Z,102707.00
2019-02-12T19:45:10.078Z,102699.33
2019-02-12T19:47:39.349Z,102696.18
2019-02-12T19:50:09.178Z,102697.66
2019-02-12T19:52:38.703Z,102695.94
2019-02-12T19:55:08.964Z,102701.34
2019-02-12T19:57:38.313Z,102699.94
2019-02-12T20:00:09.914Z,102697.55
2019-02-12T20:02:39.229Z,102695.02
2019-02-12T20:05:09.227Z,102702.14
2019-02-12T20:07:38.526Z,102701.58
2019-02-12T20:10:08.347Z,102697.14
2019-02-12T20:12:37.696Z,102698.50
2019-02-12T20:15:08.304Z,102697.98
2019-02-12T20:17:37.611Z,102686.78
2019-02-12T20:20:08.010Z,102692.73
2019-02-12T20:22:37.278Z,102687.46
2019-02-12T20:25:06.834Z,102689.70
2019-02-12T20:27:36.379Z,102684.66
2019-02-12T20:30:06.616Z,102681.02
2019-02-12T20:32:35.899Z,102693.46
2019-02-12T20:35:05.490Z,102690.63
2019-02-12T20:37:34.997Z,102686.27
2019-02-12T20:40:05.025Z,102679.14
2019-02-12T20:42:36.598Z,102681.37
2019-02-12T20:45:07.108Z,102678.02
2019-02-12T20:47:36.456Z,102683.85
2019-02-12T20:50:06.833Z,102686.09
2019-02-12T20:52:36.324Z,102697.00
2019-02-12T20:55:05.823Z,102691.89
2019-02-12T20:57:35.235Z,102684.89
2019-02-12T21:00:05.077Z,102674.58
2019-02-12T21:02:34.391Z,102678.52
2019-02-12T21:05:03.696Z,102669.17
2019-02-12T21:07:33.026Z,102664.05
2019-02-12T21:10:02.374Z,102658.66
2019-02-12T21:12:31.751Z,102649.63
2019-02-12T21:15:01.011Z,102644.87
2019-02-12T21:17:30.403Z,102645.99
2019-02-12T21:19:59.897Z,102640.20
2019-02-12T21:22:29.232Z,102637.48
2019-02-12T21:24:58.506Z,102630.80
2019-02-12T21:27:27.920Z,102632.04
2019-02-12T21:29:57.280Z,102634.24
2019-02-12T21:32:26.558Z,102637.16
2019-02-12T21:34:56.084Z,102633.55
2019-02-12T21:37:25.423Z,102634.08
2019-02-12T21:39:54.711Z,102631.48
2019-02-12T21:42:24.024Z,102635.28
2019-02-12T21:44:53.470Z,102626.13
2019-02-12T21:47:22.783Z,102623.56
2019-02-12T21:49:52.108Z,102626.92
2019-02-12T21:52:21.487Z,102621.97
2019-02-12T21:54:50.869Z,102624.17
2019-02-12T21:57:20.131Z,102625.16
2019-02-12T21:59:49.466Z,102616.84
2019-02-12T22:02:18.812Z,102612.77
2019-02-12T22:04:48.171Z,102598.36
2019-02-12T22:07:17.503Z,102591.36
2019-02-12T22:09:46.804Z,102584.03
2019-02-12T22:12:16.082Z,102584.72
2019-02-12T22:14:45.378Z,102581.72
2019-02-12T22:17:14.702Z,102574.73
2019-02-12T22:19:44.067Z,102574.36
2019-02-12T22:22:13.386Z,102568.40
2019-02-12T22:24:42.704Z,102566.72
2019-02-12T22:27:12.104Z,102555.84
2019-02-12T22:29:41.368Z,102564.37
2019-02-12T22:32:10.743Z,102565.41
2019-02-12T22:34:40.106Z,102554.65
2019-02-12T22:37:09.742Z,102546.38
2019-02-12T22:39:39.105Z,102542.61
2019-02-12T22:42:08.503Z,102521.53
2019-02-12T22:44:37.846Z,102507.31
2019-02-12T22:47:07.144Z,102492.92
2019-02-12T22:49:36.516Z,102474.52
2019-02-12T22:52:05.906Z,102465.95
2019-02-12T22:54:35.283Z,102448.36
2019-02-12T22:57:04.612Z,102442.92
2019-02-12T22:59:33.963Z,102448.31
2019-02-12T23:02:03.412Z,102454.64
2019-02-12T23:04:32.883Z,102457.68
2019-02-12T23:07:02.294Z,102466.16
2019-02-12T23:09:31.655Z,102470.02
2019-02-12T23:12:00.937Z,102461.85
2019-02-12T23:14:30.243Z,102455.31
2019-02-12T23:16:59.638Z,102461.94
2019-02-12T23:19:28.998Z,102442.05
2019-02-12T23:21:58.363Z,102453.98
2019-02-12T23:24:27.675Z,102464.08
2019-02-12T23:26:57.145Z,102453.15
2019-02-12T23:29:26.424Z,102437.59
2019-02-12T23:31:55.726Z,102437.08
2019-02-12T23:34:25.028Z,102416.45
2019-02-12T23:36:54.360Z,102401.16
2019-02-12T23:39:23.676Z,102404.97
2019-02-12T23:41:53.013Z,102402.25
2019-02-12T23:44:22.328Z,102383.35
2019-02-12T23:46:51.716Z,102376.75
2019-02-12T23:49:21.192Z,102374.42
2019-02-12T23:51:50.558Z,102364.70
2019-02-12T23:54:19.829Z,102357.16
2019-02-12T23:56:49.281Z,102344.52
2019-02-12T23:59:18.552Z,102342.92
